Time;durP1;ratioP1;P1;durP2;ratioP2;P2;SDS_P1;SDS_P2;PMS_P1;PMS_P2;Temp;Humidity;BMP_temperature;BMP_pressure;BME280_temperature;BME280_humidity;BME280_pressure;Samples;Min_cycle;Max_cycle;Signal;HPM_P1;HPM_P2
2023/01/02 00:02:22;;;;;;;17.48;7.50;;;;;;;;;;4992578;28;20018;-75
2023/01/02 00:04:48;;;;;;;19.58;7.78;;;;;;;;;;4992713;28;20029;-75
2023/01/02 00:07:14;;;;;;;14.00;7.50;;;;;;;;;;4991846;28;20444;-73
2023/01/02 00:09:40;;;;;;;14.80;7.97;;;;;;;;;;4992351;28;20045;-75
2023/01/02 00:12:06;;;;;;;14.45;7.35;;;;;;;;;;4992858;28;20030;-75
2023/01/02 00:14:32;;;;;;;15.73;7.28;;;;;;;;;;4992601;28;20403;-73
2023/01/02 00:16:58;;;;;;;13.25;7.10;;;;;;;;;;4992619;28;20030;-74
2023/01/02 00:19:24;;;;;;;13.93;7.78;;;;;;;;;;4992141;28;20479;-74
2023/01/02 00:21:50;;;;;;;15.75;7.55;;;;;;;;;;4991306;28;20026;-74
2023/01/02 00:24:16;;;;;;;12.30;7.22;;;;;;;;;;4992361;28;20034;-74
2023/01/02 00:26:42;;;;;;;14.50;7.78;;;;;;;;;;4992297;28;20033;-74
2023/01/02 00:29:08;;;;;;;14.23;7.88;;;;;;;;;;4991368;28;20034;-74
2023/01/02 00:31:34;;;;;;;12.63;6.65;;;;;;;;;;4990858;28;20401;-74
2023/01/02 00:34:00;;;;;;;17.02;7.72;;;;;;;;;;4992250;28;20085;-74
2023/01/02 00:36:26;;;;;;;16.33;7.25;;;;;;;;;;4992074;28;20023;-74
2023/01/02 00:38:55;;;;;;;13.52;7.75;;;;;;;;;;4991731;28;20464;-75
2023/01/02 00:41:21;;;;;;;19.58;7.47;;;;;;;;;;4992121;28;20068;-73
2023/01/02 00:43:47;;;;;;;13.88;7.57;;;;;;;;;;4992456;28;20034;-74
2023/01/02 00:46:14;;;;;;;16.33;6.93;;;;;;;;;;4992668;28;20110;-74
2023/01/02 00:48:40;;;;;;;16.30;8.32;;;;;;;;;;4991654;28;20496;-73
2023/01/02 00:51:07;;;;;;;12.50;7.35;;;;;;;;;;4992282;28;20482;-72
2023/01/02 00:53:33;;;;;;;13.18;7.07;;;;;;;;;;4992104;28;20026;-75
2023/01/02 00:55:59;;;;;;;15.25;6.75;;;;;;;;;;4993264;28;20029;-75
2023/01/02 00:58:25;;;;;;;15.20;7.75;;;;;;;;;;4987869;28;20036;-76
2023/01/02 01:00:51;;;;;;;11.65;6.40;;;;;;;;;;4985626;28;20026;-76
2023/01/02 01:03:17;;;;;;;13.85;7.10;;;;;;;;;;4983237;28;20486;-76
2023/01/02 01:05:43;;;;;;;14.38;7.28;;;;;;;;;;4989323;28;20050;-76
2023/01/02 01:08:09;;;;;;;11.43;6.47;;;;;;;;;;4994607;28;20162;-75
2023/01/02 01:10:36;;;;;;;12.77;7.05;;;;;;;;;;4995073;28;20303;-75
2023/01/02 01:13:02;;;;;;;12.65;6.53;;;;;;;;;;4993648;28;20571;-76
2023/01/02 01:15:28;;;;;;;12.88;5.90;;;;;;;;;;4992722;28;20057;-75
2023/01/02 01:17:54;;;;;;;13.75;7.07;;;;;;;;;;4991288;28;20022;-75
2023/01/02 01:20:20;;;;;;;11.57;5.90;;;;;;;;;;4990500;28;20138;-75
2023/01/02 01:22:46;;;;;;;14.82;6.45;;;;;;;;;;4991760;28;20027;-75
2023/01/02 01:25:12;;;;;;;14.73;6.65;;;;;;;;;;4991436;28;20022;-75
2023/01/02 01:27:38;;;;;;;12.90;6.60;;;;;;;;;;4989426;28;20032;-75
2023/01/02 01:30:05;;;;;;;13.05;6.38;;;;;;;;;;4991539;28;20031;-74
2023/01/02 01:32:31;;;;;;;12.88;6.40;;;;;;;;;;4990267;28;20105;-75
2023/01/02 01:34:57;;;;;;;9.27;5.57;;;;;;;;;;4991285;28;20157;-75
2023/01/02 01:37:23;;;;;;;10.60;5.50;;;;;;;;;;4990712;28;20077;-75
2023/01/02 01:39:49;;;;;;;12.02;5.63;;;;;;;;;;4991082;28;20026;-74
2023/01/02 01:42:15;;;;;;;7.97;5.22;;;;;;;;;;4991583;28;20342;-75
2023/01/02 01:44:49;;;;;;;9.13;5.00;;;;;;;;;;4990132;28;20030;-74
2023/01/02 01:47:23;;;;;;;10.05;5.28;;;;;;;;;;4996650;28;20543;-75
2023/01/02 01:49:50;;;;;;;8.43;4.43;;;;;;;;;;5001240;28;20030;-75
2023/01/02 01:52:22;;;;;;;9.23;5.07;;;;;;;;;;4999894;28;20037;-74
2023/01/02 01:55:00;;;;;;;9.70;4.85;;;;;;;;;;4995123;28;20027;-74
2023/01/02 01:57:37;;;;;;;7.85;4.95;;;;;;;;;;4990938;28;20030;-75
2023/01/02 02:00:03;;;;;;;10.05;5.40;;;;;;;;;;4991556;28;20019;-75
2023/01/02 02:02:31;;;;;;;5.82;2.92;;;;;;;;;;4975180;28;20480;-74
2023/01/02 02:04:59;;;;;;;7.78;3.80;;;;;;;;;;4991097;28;20035;-75
2023/01/02 02:07:26;;;;;;;7.45;4.47;;;;;;;;;;4991870;28;20392;-75
2023/01/02 02:09:56;;;;;;;5.30;2.92;;;;;;;;;;4993723;28;20034;-74
2023/01/02 02:12:23;;;;;;;8.05;4.35;;;;;;;;;;4993822;28;20038;-74
2023/01/02 02:14:49;;;;;;;7.75;2.70;;;;;;;;;;4994864;28;20022;-74
2023/01/02 02:17:15;;;;;;;5.30;2.50;;;;;;;;;;4993953;28;20030;-75
2023/01/02 02:19:41;;;;;;;3.85;2.60;;;;;;;;;;4994839;28;20389;-76
2023/01/02 02:22:19;;;;;;;4.35;2.50;;;;;;;;;;4994700;28;20022;-74
2023/01/02 02:25:03;;;;;;;4.38;2.28;;;;;;;;;;4994747;28;20049;-74
2023/01/02 02:27:48;;;;;;;8.85;3.60;;;;;;;;;;4991898;28;20034;-75
2023/01/02 02:30:18;;;;;;;6.63;2.88;;;;;;;;;;4992604;28;20097;-74
2023/01/02 02:32:51;;;;;;;9.07;4.45;;;;;;;;;;4994623;28;20022;-75
2023/01/02 02:35:42;;;;;;;16.83;5.72;;;;;;;;;;4994183;28;20022;-74
2023/01/02 02:38:27;;;;;;;11.60;6.00;;;;;;;;;;4993658;28;20492;-73
2023/01/02 02:41:03;;;;;;;14.60;7.40;;;;;;;;;;4994000;28;20030;-73
2023/01/02 02:43:35;;;;;;;13.40;6.40;;;;;;;;;;4994406;28;20455;-73
2023/01/02 02:46:13;;;;;;;12.02;7.05;;;;;;;;;;4994771;28;20061;-74
2023/01/02 02:48:39;;;;;;;16.55;7.72;;;;;;;;;;4991773;28;20027;-74
2023/01/02 02:51:09;;;;;;;12.18;7.10;;;;;;;;;;4994753;28;20037;-74
2023/01/02 02:53:39;;;;;;;16.63;7.45;;;;;;;;;;4994433;28;20029;-74
2023/01/02 02:56:07;;;;;;;20.50;7.82;;;;;;;;;;4993969;28;20026;-74
2023/01/02 02:58:33;;;;;;;15.80;7.07;;;;;;;;;;4986729;28;20525;-74
2023/01/02 03:01:01;;;;;;;12.88;7.28;;;;;;;;;;4993438;28;20042;-74
2023/01/02 03:03:27;;;;;;;13.05;6.63;;;;;;;;;;4993691;28;20035;-74
2023/01/02 03:06:08;;;;;;;12.20;6.75;;;;;;;;;;4993983;28;20100;-75
2023/01/02 03:08:53;;;;;;;13.32;7.43;;;;;;;;;;4976668;28;20502;-74
2023/01/02 03:11:22;;;;;;;13.27;7.25;;;;;;;;;;4994692;28;20125;-74
2023/01/02 03:13:48;;;;;;;15.93;7.50;;;;;;;;;;4993833;28;20100;-73
2023/01/02 03:16:14;;;;;;;13.90;7.15;;;;;;;;;;4993392;28;20473;-74
2023/01/02 03:18:46;;;;;;;13.35;6.63;;;;;;;;;;4991666;28;20054;-74
2023/01/02 03:21:14;;;;;;;11.60;6.65;;;;;;;;;;4991871;28;20034;-74
2023/01/02 03:23:45;;;;;;;12.68;7.15;;;;;;;;;;4993643;28;20030;-74
2023/01/02 03:26:12;;;;;;;12.07;6.50;;;;;;;;;;4993375;28;20037;-74
2023/01/02 03:28:40;;;;;;;15.85;7.75;;;;;;;;;;4992870;28;20264;-75
2023/01/02 03:31:08;;;;;;;14.65;7.15;;;;;;;;;;4993198;28;20384;-74
2023/01/02 03:33:36;;;;;;;13.35;7.40;;;;;;;;;;4992961;28;20476;-74
2023/01/02 03:36:06;;;;;;;13.48;6.45;;;;;;;;;;4992817;28;20031;-74
2023/01/02 03:38:43;;;;;;;10.60;6.70;;;;;;;;;;4972756;28;20023;-73
2023/01/02 03:41:11;;;;;;;12.18;6.50;;;;;;;;;;4982202;28;20380;-73
2023/01/02 03:43:38;;;;;;;13.07;6.68;;;;;;;;;;4992935;28;20038;-73
2023/01/02 03:46:13;;;;;;;10.77;5.93;;;;;;;;;;4992900;28;20057;-75
2023/01/02 03:48:56;;;;;;;13.38;7.03;;;;;;;;;;4992516;28;20467;-74
2023/01/02 03:51:22;;;;;;;14.38;6.55;;;;;;;;;;4992952;28;20026;-74
2023/01/02 03:53:49;;;;;;;12.85;6.90;;;;;;;;;;4993313;28;20037;-74
2023/01/02 03:56:15;;;;;;;11.65;5.72;;;;;;;;;;4992892;28;20539;-74
2023/01/02 03:59:03;;;;;;;8.50;4.88;;;;;;;;;;4992057;28;20026;-74
2023/01/02 04:01:47;;;;;;;11.98;3.72;;;;;;;;;;4992423;28;20033;-74
2023/01/02 04:04:13;;;;;;;6.10;1.95;;;;;;;;;;4992921;28;20041;-74
2023/01/02 04:06:42;;;;;;;6.47;2.55;;;;;;;;;;4991328;28;20026;-74
2023/01/02 04:09:13;;;;;;;4.72;2.50;;;;;;;;;;4991568;28;20385;-75
2023/01/02 04:11:42;;;;;;;3.30;2.38;;;;;;;;;;4992762;28;20030;-73
2023/01/02 04:14:13;;;;;;;5.28;2.20;;;;;;;;;;4992559;28;20069;-73
2023/01/02 04:16:40;;;;;;;6.63;2.58;;;;;;;;;;4992790;28;20014;-73
2023/01/02 04:19:13;;;;;;;6.47;2.90;;;;;;;;;;4992080;28;20058;-73
2023/01/02 04:21:40;;;;;;;8.65;3.65;;;;;;;;;;4992445;28;20034;-74
2023/01/02 04:24:06;;;;;;;4.38;2.22;;;;;;;;;;4992661;28;20039;-74
2023/01/02 04:26:39;;;;;;;10.68;3.63;;;;;;;;;;4992589;28;20382;-74
2023/01/02 04:29:05;;;;;;;5.45;2.17;;;;;;;;;;4992014;28;20544;-74
2023/01/02 04:31:43;;;;;;;8.18;2.70;;;;;;;;;;4992342;28;20130;-74
2023/01/02 04:34:12;;;;;;;6.57;2.67;;;;;;;;;;4992829;28;20114;-74
2023/01/02 04:36:39;;;;;;;7.97;3.47;;;;;;;;;;4992884;28;20042;-74
2023/01/02 04:39:05;;;;;;;6.88;2.38;;;;;;;;;;4991246;28;20440;-74
2023/01/02 04:41:32;;;;;;;12.50;7.38;;;;;;;;;;4992228;28;20022;-74
2023/01/02 04:43:58;;;;;;;12.75;6.78;;;;;;;;;;4992306;28;20496;-73
2023/01/02 04:46:25;;;;;;;13.60;7.75;;;;;;;;;;4991886;28;20030;-74
2023/01/02 04:48:52;;;;;;;13.93;8.05;;;;;;;;;;4991094;28;20488;-74
2023/01/02 04:51:18;;;;;;;12.18;7.47;;;;;;;;;;4991837;28;20206;-74
2023/01/02 04:53:47;;;;;;;12.32;7.88;;;;;;;;;;4991610;28;20537;-73
2023/01/02 04:56:13;;;;;;;14.75;9.07;;;;;;;;;;4991788;28;20022;-74
2023/01/02 04:58:39;;;;;;;14.40;8.43;;;;;;;;;;4990865;28;20030;-73
2023/01/02 05:01:09;;;;;;;13.82;7.53;;;;;;;;;;4991781;28;20325;-73
2023/01/02 05:03:38;;;;;;;11.80;7.40;;;;;;;;;;4991853;28;20031;-73
2023/01/02 05:06:04;;;;;;;17.45;7.95;;;;;;;;;;4991508;28;20037;-74
2023/01/02 05:08:30;;;;;;;11.05;7.68;;;;;;;;;;4989502;28;20027;-74
2023/01/02 05:10:56;;;;;;;13.15;7.88;;;;;;;;;;4990319;28;20038;-73
2023/01/02 05:13:22;;;;;;;13.10;7.13;;;;;;;;;;4991127;28;20022;-74
2023/01/02 05:15:58;;;;;;;15.40;8.82;;;;;;;;;;4991620;28;20448;-74
2023/01/02 05:18:24;;;;;;;13.68;8.48;;;;;;;;;;4989356;28;20790;-76
2023/01/02 05:20:50;;;;;;;11.65;7.65;;;;;;;;;;4991633;28;20031;-75
2023/01/02 05:26:00;;;;;;;13.55;7.75;;;;;;;;;;4992211;28;20041;-74
2023/01/02 05:28:26;;;;;;;16.65;7.78;;;;;;;;;;4990711;28;20026;-75
2023/01/02 05:30:52;;;;;;;12.88;8.18;;;;;;;;;;4991400;28;20033;-74
2023/01/02 05:33:18;;;;;;;17.00;8.73;;;;;;;;;;4991252;28;20469;-74
2023/01/02 05:35:44;;;;;;;14.43;8.80;;;;;;;;;;4992335;28;20026;-75
2023/01/02 05:38:10;;;;;;;14.38;7.80;;;;;;;;;;4993524;28;20026;-75
2023/01/02 05:40:36;;;;;;;15.50;8.95;;;;;;;;;;4992630;28;20041;-74
2023/01/02 05:43:02;;;;;;;14.98;8.85;;;;;;;;;;4990927;28;20133;-74
2023/01/02 05:45:28;;;;;;;15.73;8.52;;;;;;;;;;4993646;28;20118;-74
2023/01/02 05:47:54;;;;;;;14.15;8.38;;;;;;;;;;4991508;28;20400;-74
2023/01/02 05:50:20;;;;;;;13.20;8.93;;;;;;;;;;4992697;28;20274;-74
2023/01/02 05:52:46;;;;;;;13.73;9.02;;;;;;;;;;4995571;28;20026;-76
2023/01/02 05:55:12;;;;;;;14.55;8.55;;;;;;;;;;4993744;28;20030;-74
2023/01/02 05:57:38;;;;;;;14.68;7.85;;;;;;;;;;4994776;28;20392;-74
2023/01/02 06:00:05;;;;;;;17.67;8.35;;;;;;;;;;4995582;28;20026;-74
2023/01/02 06:02:31;;;;;;;13.68;8.70;;;;;;;;;;4995895;28;20069;-75
2023/01/02 06:04:57;;;;;;;15.27;8.65;;;;;;;;;;4996245;28;20428;-76
2023/01/02 06:07:23;;;;;;;12.48;8.30;;;;;;;;;;4994922;28;20034;-74
2023/01/02 06:09:49;;;;;;;15.20;8.40;;;;;;;;;;4995244;28;20266;-74
2023/01/02 06:12:15;;;;;;;15.05;8.10;;;;;;;;;;4995705;28;20061;-74
2023/01/02 06:14:41;;;;;;;14.00;8.20;;;;;;;;;;4998886;28;20022;-74
2023/01/02 06:17:07;;;;;;;15.35;8.43;;;;;;;;;;4996350;28;20081;-71
2023/01/02 06:19:33;;;;;;;17.48;9.52;;;;;;;;;;4996001;28;20022;-75
2023/01/02 06:21:59;;;;;;;14.23;8.73;;;;;;;;;;5001732;28;20029;-76
2023/01/02 06:24:25;;;;;;;16.25;8.38;;;;;;;;;;4999156;28;20101;-74
2023/01/02 06:26:51;;;;;;;14.77;8.70;;;;;;;;;;5006489;28;20034;-73
2023/01/02 06:29:17;;;;;;;12.75;8.35;;;;;;;;;;5003679;28;20485;-74
2023/01/02 06:31:43;;;;;;;16.77;9.65;;;;;;;;;;5005022;28;20032;-74
2023/01/02 06:34:09;;;;;;;19.88;8.45;;;;;;;;;;4998990;28;20061;-73
2023/01/02 06:36:35;;;;;;;18.88;9.68;;;;;;;;;;5003330;28;20018;-75
2023/01/02 06:39:01;;;;;;;14.60;8.95;;;;;;;;;;5001840;28;20023;-75
2023/01/02 06:41:27;;;;;;;14.93;8.32;;;;;;;;;;5001864;28;20100;-74
2023/01/02 06:43:54;;;;;;;13.30;9.00;;;;;;;;;;4993895;28;20043;-74
2023/01/02 06:46:21;;;;;;;16.20;9.52;;;;;;;;;;4996680;28;20030;-75
2023/01/02 06:48:47;;;;;;;15.55;9.13;;;;;;;;;;4992789;28;20023;-73
2023/01/02 06:51:15;;;;;;;15.15;9.98;;;;;;;;;;4991077;28;20060;-73
2023/01/02 06:53:42;;;;;;;17.63;10.82;;;;;;;;;;4989131;28;20027;-74
2023/01/02 06:56:08;;;;;;;18.63;10.13;;;;;;;;;;4993954;28;20041;-74
2023/01/02 06:58:35;;;;;;;17.85;9.65;;;;;;;;;;4992365;28;20161;-75
2023/01/02 07:01:02;;;;;;;15.10;9.65;;;;;;;;;;5003020;28;20030;-74
2023/01/02 07:03:28;;;;;;;18.00;9.43;;;;;;;;;;4994536;28;20035;-72
2023/01/02 07:05:58;;;;;;;16.25;10.20;;;;;;;;;;4997870;28;20049;-74
2023/01/02 07:08:24;;;;;;;16.80;10.45;;;;;;;;;;4994654;28;20022;-74
2023/01/02 07:10:50;;;;;;;16.48;9.77;;;;;;;;;;4994520;28;20129;-75
2023/01/02 07:13:16;;;;;;;18.85;10.30;;;;;;;;;;4994197;28;20457;-74
2023/01/02 07:15:42;;;;;;;19.35;10.85;;;;;;;;;;4987974;28;20106;-75
2023/01/02 07:18:08;;;;;;;20.85;11.73;;;;;;;;;;4976473;28;20046;-73
2023/01/02 07:20:34;;;;;;;18.38;12.32;;;;;;;;;;4992336;28;20364;-74
2023/01/02 07:23:00;;;;;;;22.58;11.40;;;;;;;;;;4991680;28;20053;-75
2023/01/02 07:25:26;;;;;;;20.00;11.52;;;;;;;;;;4992687;28;20415;-74
2023/01/02 07:27:52;;;;;;;21.65;10.52;;;;;;;;;;4992558;28;20042;-74
2023/01/02 07:30:19;;;;;;;17.90;10.57;;;;;;;;;;4993574;28;20140;-73
2023/01/02 07:32:45;;;;;;;17.70;11.50;;;;;;;;;;4988055;28;20018;-72
2023/01/02 07:35:11;;;;;;;18.40;12.57;;;;;;;;;;4983270;28;20404;-74
2023/01/02 07:37:37;;;;;;;21.90;12.43;;;;;;;;;;4993338;28;20076;-74
2023/01/02 07:40:04;;;;;;;24.13;12.18;;;;;;;;;;4994029;28;20027;-74
2023/01/02 07:42:30;;;;;;;18.42;10.27;;;;;;;;;;4993355;28;20030;-74
2023/01/02 07:44:56;;;;;;;17.95;11.15;;;;;;;;;;4993013;28;20030;-73
2023/01/02 07:47:22;;;;;;;29.33;12.45;;;;;;;;;;4992213;28;20038;-73
2023/01/02 07:49:48;;;;;;;20.90;11.93;;;;;;;;;;4993256;28;20022;-74
2023/01/02 07:52:14;;;;;;;20.73;11.93;;;;;;;;;;4991985;28;20023;-72
2023/01/02 07:54:40;;;;;;;20.48;10.88;;;;;;;;;;4992861;28;20399;-73
2023/01/02 07:57:06;;;;;;;24.73;11.27;;;;;;;;;;4992423;28;20031;-76
2023/01/02 07:59:32;;;;;;;20.45;11.40;;;;;;;;;;4991352;28;20366;-75
2023/01/02 08:01:58;;;;;;;17.83;11.70;;;;;;;;;;4992889;28;20025;-73
2023/01/02 08:04:24;;;;;;;21.48;11.50;;;;;;;;;;4991028;28;20815;-73
2023/01/02 08:06:50;;;;;;;19.35;11.70;;;;;;;;;;4992536;28;20122;-73
2023/01/02 08:09:16;;;;;;;19.38;11.20;;;;;;;;;;4992252;28;20113;-72
2023/01/02 08:11:42;;;;;;;20.23;12.18;;;;;;;;;;4992645;28;20068;-74
2023/01/02 08:14:08;;;;;;;20.67;11.05;;;;;;;;;;4993513;28;20090;-73
2023/01/02 08:16:34;;;;;;;17.25;10.75;;;;;;;;;;4985248;28;20019;-73
2023/01/02 08:19:00;;;;;;;20.23;11.05;;;;;;;;;;4971814;28;20496;-72
2023/01/02 08:21:26;;;;;;;16.67;10.98;;;;;;;;;;4991638;28;20289;-73
2023/01/02 08:23:52;;;;;;;21.35;10.80;;;;;;;;;;4990210;28;20030;-73
2023/01/02 08:26:19;;;;;;;19.88;11.38;;;;;;;;;;4992806;28;20100;-73
2023/01/02 08:28:45;;;;;;;21.95;11.80;;;;;;;;;;4991284;28;20495;-71
2023/01/02 08:31:16;;;;;;;24.55;11.05;;;;;;;;;;4992349;28;20030;-74
2023/01/02 08:33:42;;;;;;;16.80;10.32;;;;;;;;;;4976184;28;20085;-73
2023/01/02 08:36:08;;;;;;;20.52;10.88;;;;;;;;;;4973317;28;20023;-73
2023/01/02 08:38:34;;;;;;;23.77;11.55;;;;;;;;;;4972315;28;20023;-72
2023/01/02 08:41:00;;;;;;;17.35;10.68;;;;;;;;;;4985962;28;20077;-72
2023/01/02 08:43:27;;;;;;;17.48;10.65;;;;;;;;;;4992862;28;20023;-73
2023/01/02 08:45:53;;;;;;;17.75;10.82;;;;;;;;;;4992939;28;20022;-73
2023/01/02 08:48:20;;;;;;;16.65;11.32;;;;;;;;;;4992124;28;20018;-72
2023/01/02 08:50:46;;;;;;;22.17;11.43;;;;;;;;;;4992290;28;20467;-73
2023/01/02 08:53:12;;;;;;;18.08;10.18;;;;;;;;;;4993698;28;20026;-73
2023/01/02 08:55:37;;;;;;;17.10;9.75;;;;;;;;;;4992408;28;20026;-73
2023/01/02 08:58:04;;;;;;;20.92;11.05;;;;;;;;;;4993558;28;20396;-73
2023/01/02 09:00:30;;;;;;;16.52;9.88;;;;;;;;;;4993551;28;20452;-74
2023/01/02 09:02:56;;;;;;;17.83;10.30;;;;;;;;;;4993070;28;20026;-73
2023/01/02 09:05:22;;;;;;;17.90;11.25;;;;;;;;;;4992107;28;20062;-72
2023/01/02 09:07:48;;;;;;;17.45;10.95;;;;;;;;;;4990998;28;20432;-72
2023/01/02 09:10:14;;;;;;;19.63;11.70;;;;;;;;;;5024805;22;20045;-75
2023/01/02 09:12:40;;;;;;;16.58;10.45;;;;;;;;;;5013480;28;20025;-74
2023/01/02 09:15:06;;;;;;;18.80;10.90;;;;;;;;;;5012049;28;20023;-74
2023/01/02 09:17:32;;;;;;;21.45;10.95;;;;;;;;;;5028353;28;20014;-74
2023/01/02 09:19:58;;;;;;;18.58;11.10;;;;;;;;;;5028890;28;20029;-75
2023/01/02 09:22:24;;;;;;;18.35;11.10;;;;;;;;;;5029722;28;20372;-73
2023/01/02 09:24:50;;;;;;;18.95;10.70;;;;;;;;;;5012002;28;20108;-74
2023/01/02 09:27:16;;;;;;;18.50;10.50;;;;;;;;;;5030539;28;20049;-74
2023/01/02 09:29:42;;;;;;;17.48;10.10;;;;;;;;;;5013634;28;20080;-75
2023/01/02 09:32:08;;;;;;;18.15;11.88;;;;;;;;;;5031748;28;20026;-75
2023/01/02 09:34:34;;;;;;;16.48;10.32;;;;;;;;;;5031073;28;20072;-75
2023/01/02 09:37:00;;;;;;;16.83;9.60;;;;;;;;;;5030629;28;20076;-73
2023/01/02 09:39:26;;;;;;;12.77;9.55;;;;;;;;;;5030876;28;20415;-74
2023/01/02 09:41:53;;;;;;;16.98;9.73;;;;;;;;;;5031229;28;20405;-73
2023/01/02 09:44:46;;;;;;;18.70;10.10;;;;;;;;;;5031405;28;20029;-74
2023/01/02 09:47:12;;;;;;;17.23;9.82;;;;;;;;;;5025563;28;20037;-74
2023/01/02 09:49:38;;;;;;;14.20;9.13;;;;;;;;;;5030701;28;20030;-74
2023/01/02 09:52:06;;;;;;;18.65;10.00;;;;;;;;;;5031100;28;20029;-75
2023/01/02 09:54:33;;;;;;;18.65;8.88;;;;;;;;;;5031095;28;20033;-75
2023/01/02 09:57:18;;;;;;;19.20;10.07;;;;;;;;;;5012786;28;20097;-74
2023/01/02 09:59:49;;;;;;;15.13;10.20;;;;;;;;;;5030757;28;20021;-74
2023/01/02 10:02:20;;;;;;;17.88;9.82;;;;;;;;;;5030966;28;20029;-75
2023/01/02 10:04:55;;;;;;;15.73;9.32;;;;;;;;;;5031236;28;20029;-76
2023/01/02 10:07:21;;;;;;;14.10;9.10;;;;;;;;;;5030154;28;20492;-74
2023/01/02 10:10:11;;;;;;;16.83;9.27;;;;;;;;;;5030534;28;20125;-75
2023/01/02 10:12:46;;;;;;;13.18;8.18;;;;;;;;;;5022978;28;20065;-75
2023/01/02 10:15:15;;;;;;;16.60;9.15;;;;;;;;;;5030418;28;20064;-74
2023/01/02 10:17:46;;;;;;;16.63;9.00;;;;;;;;;;5029988;28;20018;-75
2023/01/02 10:20:28;;;;;;;16.27;9.52;;;;;;;;;;5030628;28;20037;-74
2023/01/02 10:23:15;;;;;;;15.85;8.43;;;;;;;;;;5012999;28;20030;-74
2023/01/02 10:25:52;;;;;;;14.18;8.50;;;;;;;;;;5030859;28;20417;-75
2023/01/02 10:28:27;;;;;;;17.60;9.45;;;;;;;;;;5031292;28;20028;-74
2023/01/02 10:30:57;;;;;;;14.85;8.68;;;;;;;;;;5034125;28;20030;-74
2023/01/02 10:33:23;;;;;;;14.57;8.98;;;;;;;;;;5016427;28;20021;-75
2023/01/02 10:36:16;;;;;;;13.68;8.70;;;;;;;;;;5016391;28;20025;-74
2023/01/02 10:38:42;;;;;;;13.55;8.43;;;;;;;;;;5029735;28;20121;-75
2023/01/02 10:41:08;;;;;;;12.15;8.23;;;;;;;;;;5034034;28;20050;-76
2023/01/02 10:43:35;;;;;;;16.85;9.45;;;;;;;;;;5032872;28;20021;-75
2023/01/02 10:46:02;;;;;;;12.85;8.20;;;;;;;;;;5034107;28;20017;-74
2023/01/02 10:48:31;;;;;;;11.52;8.45;;;;;;;;;;5031754;28;20043;-75
2023/01/02 10:51:00;;;;;;;14.27;8.77;;;;;;;;;;5033641;28;20025;-75
2023/01/02 10:53:31;;;;;;;16.58;9.32;;;;;;;;;;5033788;28;20039;-76
2023/01/02 10:55:57;;;;;;;;;;;;;;;;;;5016312;28;20108;-75
2023/01/02 10:58:23;;;;;;;15.55;8.75;;;;;;;;;;5032292;28;20004;-74
2023/01/02 11:00:51;;;;;;;15.55;9.05;;;;;;;;;;5032017;28;20428;-76
2023/01/02 11:03:21;;;;;;;14.07;9.55;;;;;;;;;;5031947;28;20059;-74
2023/01/02 11:05:48;;;;;;;16.90;8.93;;;;;;;;;;5011327;28;20017;-75
2023/01/02 11:08:18;;;;;;;16.33;9.23;;;;;;;;;;5032854;28;20479;-75
2023/01/02 11:10:44;;;;;;;14.00;8.77;;;;;;;;;;5033526;28;20037;-74
2023/01/02 11:13:12;;;;;;;17.02;9.45;;;;;;;;;;5033421;28;20018;-74
2023/01/02 11:15:50;;;;;;;17.08;8.38;;;;;;;;;;5032994;28;20044;-74
2023/01/02 11:18:19;;;;;;;13.35;8.80;;;;;;;;;;5033278;28;20028;-76
2023/01/02 11:20:49;;;;;;;12.38;8.70;;;;;;;;;;5034339;28;20662;-76
2023/01/02 11:23:15;;;;;;;15.15;8.32;;;;;;;;;;5034044;28;20025;-76
2023/01/02 11:25:42;;;;;;;14.93;8.50;;;;;;;;;;5033634;28;20040;-75
2023/01/02 11:28:25;;;;;;;12.20;8.32;;;;;;;;;;5032571;28;20079;-76
2023/01/02 11:31:01;;;;;;;17.27;9.35;;;;;;;;;;5033200;28;20028;-75
2023/01/02 11:33:29;;;;;;;14.32;8.40;;;;;;;;;;5015380;28;20488;-76
2023/01/02 11:36:04;;;;;;;11.43;7.82;;;;;;;;;;5033180;28;20022;-76
2023/01/02 11:38:47;;;;;;;12.80;8.07;;;;;;;;;;5014453;28;20029;-76
2023/01/02 11:44:10;;;;;;;14.10;8.18;;;;;;;;;;5033352;28;20085;-77
2023/01/02 11:46:37;;;;;;;13.00;8.63;;;;;;;;;;5014631;28;20076;-73
2023/01/02 11:49:20;;;;;;;14.38;8.48;;;;;;;;;;5032538;28;20105;-75
2023/01/02 11:51:52;;;;;;;11.57;8.20;;;;;;;;;;5015170;28;20032;-75
2023/01/02 11:54:22;;;;;;;16.83;8.60;;;;;;;;;;5033508;28;20029;-75
2023/01/02 11:56:49;;;;;;;11.88;8.65;;;;;;;;;;5033322;28;20116;-75
2023/01/02 11:59:24;;;;;;;15.65;9.10;;;;;;;;;;5031164;28;20083;-74
2023/01/02 12:01:56;;;;;;;12.30;7.50;;;;;;;;;;5033494;28;20032;-76
2023/01/02 12:04:23;;;;;;;12.55;7.50;;;;;;;;;;5033108;28;20026;-75
2023/01/02 12:07:04;;;;;;;10.90;7.50;;;;;;;;;;5033430;28;20033;-75
2023/01/02 12:09:36;;;;;;;11.43;7.55;;;;;;;;;;5032716;28;20081;-74
2023/01/02 12:12:16;;;;;;;12.07;7.45;;;;;;;;;;5030433;28;20048;-76
2023/01/02 12:15:01;;;;;;;13.02;7.68;;;;;;;;;;5014809;28;20025;-76
2023/01/02 12:17:27;;;;;;;12.98;8.10;;;;;;;;;;5031629;28;20484;-76
2023/01/02 12:19:53;;;;;;;11.65;7.20;;;;;;;;;;5014738;28;20033;-74
2023/01/02 12:22:38;;;;;;;11.80;7.55;;;;;;;;;;5033597;28;20363;-76
2023/01/02 12:25:09;;;;;;;13.10;7.72;;;;;;;;;;5032756;28;20423;-76
2023/01/02 12:28:01;;;;;;;14.50;7.43;;;;;;;;;;5031550;28;20018;-74
2023/01/02 12:30:30;;;;;;;13.30;7.82;;;;;;;;;;4982963;28;20506;-75
2023/01/02 12:33:08;;;;;;;11.35;7.38;;;;;;;;;;5032666;28;20027;-76
2023/01/02 12:35:40;;;;;;;17.55;8.27;;;;;;;;;;5032842;28;20026;-75
2023/01/02 12:38:07;;;;;;;16.85;7.85;;;;;;;;;;5032949;28;20021;-75
2023/01/02 12:40:37;;;;;;;11.25;7.60;;;;;;;;;;5033034;28;20079;-77
2023/01/02 12:43:22;;;;;;;18.23;7.47;;;;;;;;;;5033634;28;20041;-75
2023/01/02 12:45:48;;;;;;;13.48;7.63;;;;;;;;;;5032394;28;20048;-77
2023/01/02 12:48:14;;;;;;;12.88;7.03;;;;;;;;;;5031372;28;20052;-76
2023/01/02 12:50:52;;;;;;;13.75;7.55;;;;;;;;;;5032106;28;20101;-75
2023/01/02 12:53:19;;;;;;;14.60;8.32;;;;;;;;;;5031634;28;20033;-77
2023/01/02 12:55:45;;;;;;;10.40;6.75;;;;;;;;;;5031649;28;20100;-76
2023/01/02 12:58:20;;;;;;;12.55;7.47;;;;;;;;;;5013503;28;20023;-76
2023/01/02 13:01:03;;;;;;;11.48;7.30;;;;;;;;;;5031388;28;20048;-76
2023/01/02 13:03:44;;;;;;;10.73;7.00;;;;;;;;;;5032156;28;20026;-76
2023/01/02 13:06:10;;;;;;;;;;;;;;;;;;5030767;28;20021;-76
2023/01/02 13:08:48;;;;;;;14.48;7.97;;;;;;;;;;5012721;28;20425;-76
2023/01/02 13:11:17;;;;;;;8.85;6.22;;;;;;;;;;5013347;28;20041;-76
2023/01/02 13:13:43;;;;;;;12.40;6.90;;;;;;;;;;5031079;28;20392;-75
2023/01/02 13:16:11;;;;;;;14.48;7.03;;;;;;;;;;5030880;28;20383;-76
2023/01/02 13:18:41;;;;;;;11.57;7.22;;;;;;;;;;5030774;28;20104;-76
2023/01/02 13:21:20;;;;;;;10.20;7.25;;;;;;;;;;5030819;28;20049;-74
2023/01/02 13:23:47;;;;;;;11.15;6.95;;;;;;;;;;5030878;28;20420;-75
2023/01/02 13:26:17;;;;;;;12.05;7.55;;;;;;;;;;5030641;28;20101;-75
2023/01/02 13:28:53;;;;;;;10.10;6.82;;;;;;;;;;5030113;28;20044;-75
2023/01/02 13:31:20;;;;;;;11.75;6.93;;;;;;;;;;5031014;28;20025;-75
2023/01/02 13:33:47;;;;;;;15.30;6.75;;;;;;;;;;5013016;28;20032;-74
2023/01/02 13:36:27;;;;;;;10.88;6.95;;;;;;;;;;5030662;28;20021;-75
2023/01/02 13:38:54;;;;;;;11.82;7.22;;;;;;;;;;5012575;28;20025;-75
2023/01/02 13:41:21;;;;;;;12.00;6.88;;;;;;;;;;5013574;28;20083;-75
2023/01/02 13:43:49;;;;;;;10.73;7.15;;;;;;;;;;5031970;28;20518;-75
2023/01/02 13:46:20;;;;;;;15.73;6.35;;;;;;;;;;5013587;28;20028;-75
2023/01/02 13:48:46;;;;;;;12.07;6.20;;;;;;;;;;5030492;28;20021;-75
2023/01/02 13:51:14;;;;;;;9.18;6.10;;;;;;;;;;5030698;28;20022;-75
2023/01/02 13:53:47;;;;;;;18.75;6.60;;;;;;;;;;5030748;28;20026;-75
2023/01/02 13:56:21;;;;;;;12.73;5.85;;;;;;;;;;5015249;28;20018;-74
2023/01/02 13:58:56;;;;;;;13.25;6.07;;;;;;;;;;5030959;28;20045;-75
2023/01/02 14:01:22;;;;;;;14.25;5.85;;;;;;;;;;5030783;28;20411;-75
2023/01/02 14:03:48;;;;;;;12.65;4.85;;;;;;;;;;5033170;28;20059;-75
2023/01/02 14:06:33;;;;;;;14.07;6.00;;;;;;;;;;5034994;28;20108;-76
2023/01/02 14:09:05;;;;;;;10.20;5.28;;;;;;;;;;5034429;28;20021;-76
2023/01/02 14:11:32;;;;;;;10.15;5.47;;;;;;;;;;5034017;28;20087;-76
2023/01/02 14:13:59;;;;;;;10.45;5.40;;;;;;;;;;5016247;28;20084;-74
2023/01/02 14:16:25;;;;;;;8.90;5.45;;;;;;;;;;5034673;28;20021;-76
2023/01/02 14:19:03;;;;;;;10.85;5.80;;;;;;;;;;5035534;28;20438;-75
2023/01/02 14:21:34;;;;;;;7.55;5.35;;;;;;;;;;5034251;28;20112;-74
2023/01/02 14:24:00;;;;;;;13.05;6.45;;;;;;;;;;5016327;28;20051;-74
2023/01/02 14:26:29;;;;;;;8.65;5.47;;;;;;;;;;5016681;28;20057;-75
2023/01/02 14:28:55;;;;;;;11.75;5.93;;;;;;;;;;5033612;28;20502;-74
2023/01/02 14:31:32;;;;;;;14.45;5.70;;;;;;;;;;5034288;28;20429;-75
2023/01/02 14:33:58;;;;;;;13.05;5.93;;;;;;;;;;5033783;28;20038;-74
2023/01/02 14:36:43;;;;;;;13.27;5.38;;;;;;;;;;5033869;28;20073;-75
2023/01/02 14:39:29;;;;;;;16.85;6.28;;;;;;;;;;5032751;28;20024;-75
2023/01/02 14:44:42;;;;;;;23.98;6.93;;;;;;;;;;5033598;28;20064;-75
2023/01/02 14:47:16;;;;;;;18.77;5.68;;;;;;;;;;5032518;28;20033;-72
2023/01/02 14:49:43;;;;;;;20.92;6.07;;;;;;;;;;5015700;28;20029;-75